SLSA/SBL METAR and TAF weather

Enter ICAO airport designator
Station Type Date Time Source
SLSA METAR 2022/11/30 10:00 UTC NOAA

SLSA 301000Z 34004KT 8000 NSC 24/23 Q1002


Station Type Date Time Source
SLSA Decoded METAR 2022/11/30 10:00 UTC NOAA

Santa Ana, Bolivia (SLSA) 13-46S 065-26W
Nov 30, 2022 - 05:00 AM EST / 2022.11.30 1000 UTC
Wind: from the NNW (340 degrees) at 5 MPH (4 KT):0
Visibility: 4 mile(s):0
Temperature: 75 F (24 C)
Dew Point: 73 F (23 C)
Relative Humidity: 94%
Pressure (altimeter): 29.59 in. Hg (1002 hPa)
ob: SLSA 301000Z 34004KT 8000 NSC 24/23 Q1002
cycle: 10

Station Type Date Time Source
SLSA TAF 2009/01/07 11:00 UTC NOAA

METAR SLSA 071100Z 00000KT 9999 FEW020 BKN080 26/24 Q1009

Example: see airport list